Time;durP1;ratioP1;P1;durP2;ratioP2;P2;SDS_P1;SDS_P2;PMS_P1;PMS_P2;Temp;Humidity;BMP_temperature;BMP_pressure;BME280_temperature;BME280_humidity;BME280_pressure;Samples;Min_cycle;Max_cycle;Signal;HPM_P1;HPM_P2
2023/10/15 00:05:05;;;;;;;7.65;3.20;;;;;;;;;;6095849;23;20503;-93
2023/10/15 00:08:10;;;;;;;6.10;2.60;;;;;;;;;;6092821;23;20197;-93
2023/10/15 00:11:17;;;;;;;9.25;3.30;;;;;;;;;;6092113;23;20170;-92
2023/10/15 00:14:23;;;;;;;9.60;3.97;;;;;;;;;;6092229;23;20177;-93
2023/10/15 00:17:30;;;;;;;7.40;3.03;;;;;;;;;;6109890;23;20214;-91
2023/10/15 00:20:40;;;;;;;9.38;2.95;;;;;;;;;;6094222;23;20682;-95
2023/10/15 00:23:46;;;;;;;7.15;3.10;;;;;;;;;;6091751;23;20173;-94
2023/10/15 00:26:52;;;;;;;8.38;2.90;;;;;;;;;;6093423;23;20169;-93
2023/10/15 00:29:57;;;;;;;6.35;2.47;;;;;;;;;;6093139;23;20688;-95
2023/10/15 00:33:06;;;;;;;13.18;3.47;;;;;;;;;;6093889;23;20178;-94
2023/10/15 00:36:13;;;;;;;9.75;3.22;;;;;;;;;;6093040;23;20191;-93
2023/10/15 00:39:21;;;;;;;9.43;3.30;;;;;;;;;;6094048;23;20245;-94
2023/10/15 00:42:30;;;;;;;8.95;3.45;;;;;;;;;;6094609;23;20170;-92
2023/10/15 00:45:43;;;;;;;11.32;3.80;;;;;;;;;;6095292;23;20198;-92
2023/10/15 00:48:48;;;;;;;12.57;4.60;;;;;;;;;;6094916;23;20281;-93
2023/10/15 00:51:55;;;;;;;10.63;3.78;;;;;;;;;;6111379;23;20602;-94
2023/10/15 00:55:00;;;;;;;11.75;3.60;;;;;;;;;;6110194;23;20177;-94
2023/10/15 00:58:08;;;;;;;10.93;3.75;;;;;;;;;;6094510;23;20157;-92
2023/10/15 01:01:26;;;;;;;10.57;3.63;;;;;;;;;;6097472;23;20170;-92
2023/10/15 01:04:35;;;;;;;9.10;3.22;;;;;;;;;;6094240;23;20170;-93
2023/10/15 01:07:46;;;;;;;7.10;3.70;;;;;;;;;;6092971;23;20776;-92
2023/10/15 01:11:08;;;;;;;9.65;3.33;;;;;;;;;;6093452;23;20157;-91
2023/10/15 01:14:14;;;;;;;8.07;2.90;;;;;;;;;;6109911;23;20222;-93
2023/10/15 01:17:23;;;;;;;11.88;3.10;;;;;;;;;;6093077;23;20182;-93
2023/10/15 01:20:30;;;;;;;12.93;3.35;;;;;;;;;;6092592;23;20178;-93
2023/10/15 01:23:52;;;;;;;9.32;3.30;;;;;;;;;;6093372;23;20214;-94
2023/10/15 01:27:05;;;;;;;9.98;3.35;;;;;;;;;;6093168;23;20165;-94
2023/10/15 01:30:17;;;;;;;9.82;3.25;;;;;;;;;;6093252;23;20173;-94
2023/10/15 01:33:22;;;;;;;7.15;3.28;;;;;;;;;;6093966;23;20181;-94
2023/10/15 01:36:28;;;;;;;12.48;3.28;;;;;;;;;;6110328;23;20202;-91
2023/10/15 01:39:37;;;;;;;9.50;3.35;;;;;;;;;;6095407;23;20169;-95
2023/10/15 01:42:47;;;;;;;11.90;3.63;;;;;;;;;;6111578;23;20222;-92
2023/10/15 01:45:57;;;;;;;8.30;3.47;;;;;;;;;;6094563;23;20162;-94
2023/10/15 01:49:06;;;;;;;7.65;3.25;;;;;;;;;;6093445;23;20197;-94
2023/10/15 01:52:13;;;;;;;7.10;2.40;;;;;;;;;;6094006;23;20248;-94
2023/10/15 01:55:18;;;;;;;10.50;3.03;;;;;;;;;;6094317;23;20190;-93
2023/10/15 01:58:31;;;;;;;9.02;3.00;;;;;;;;;;6109486;23;20174;-94
2023/10/15 02:01:40;;;;;;;9.38;2.70;;;;;;;;;;6093774;23;20169;-93
2023/10/15 02:04:47;;;;;;;11.35;3.00;;;;;;;;;;6094162;23;20174;-92
2023/10/15 02:07:52;;;;;;;9.52;2.67;;;;;;;;;;6093715;23;20193;-93
2023/10/15 02:10:57;;;;;;;7.10;2.50;;;;;;;;;;6095119;23;20154;-93
2023/10/15 02:14:07;;;;;;;9.70;2.80;;;;;;;;;;6093051;23;20246;-94
2023/10/15 02:17:14;;;;;;;8.43;3.15;;;;;;;;;;6093895;23;20183;-93
2023/10/15 02:20:40;;;;;;;9.07;3.10;;;;;;;;;;6110474;23;20158;-94
2023/10/15 02:23:52;;;;;;;9.48;2.47;;;;;;;;;;6093647;23;20173;-94
2023/10/15 02:26:56;;;;;;;8.10;3.10;;;;;;;;;;6094824;23;20169;-93
2023/10/15 02:30:05;;;;;;;9.25;2.90;;;;;;;;;;6112939;23;20177;-93
2023/10/15 02:33:16;;;;;;;6.68;2.72;;;;;;;;;;6094044;23;20239;-93
2023/10/15 02:36:24;;;;;;;7.75;2.63;;;;;;;;;;6096465;23;20190;-92
2023/10/15 02:39:38;;;;;;;9.95;2.53;;;;;;;;;;6094670;23;20188;-95
2023/10/15 02:42:52;;;;;;;8.55;2.72;;;;;;;;;;6094372;23;20215;-92
2023/10/15 02:46:01;;;;;;;7.90;2.88;;;;;;;;;;6093833;23;20170;-93
2023/10/15 02:49:09;;;;;;;6.13;2.70;;;;;;;;;;6110921;23;20512;-92
2023/10/15 02:52:18;;;;;;;8.13;2.95;;;;;;;;;;6094869;23;20228;-91
2023/10/15 02:55:35;;;;;;;11.32;3.03;;;;;;;;;;6094959;23;20193;-91
2023/10/15 02:58:42;;;;;;;5.93;2.65;;;;;;;;;;6093248;23;20174;-92
2023/10/15 03:01:54;;;;;;;8.55;2.70;;;;;;;;;;6094357;23;20198;-94
2023/10/15 03:05:07;;;;;;;9.23;2.72;;;;;;;;;;6092558;23;20240;-91
2023/10/15 03:08:20;;;;;;;11.20;2.80;;;;;;;;;;6092970;23;20190;-94
2023/10/15 03:11:31;;;;;;;9.18;2.40;;;;;;;;;;6093344;23;20206;-92
2023/10/15 03:14:37;;;;;;;9.93;3.00;;;;;;;;;;6110251;23;20173;-94
2023/10/15 03:17:43;;;;;;;8.93;2.60;;;;;;;;;;6093797;23;20210;-94
2023/10/15 03:20:49;;;;;;;5.28;2.47;;;;;;;;;;6109584;23;20174;-91
2023/10/15 03:23:56;;;;;;;9.10;2.50;;;;;;;;;;6110771;23;20174;-93
2023/10/15 03:27:02;;;;;;;9.40;2.85;;;;;;;;;;6110911;23;20211;-92
2023/10/15 03:30:09;;;;;;;10.07;2.72;;;;;;;;;;6094733;23;20174;-95
2023/10/15 03:33:17;;;;;;;9.63;2.65;;;;;;;;;;6094580;23;20207;-93
2023/10/15 03:36:24;;;;;;;8.23;2.63;;;;;;;;;;6094627;23;20286;-91
2023/10/15 03:39:53;;;;;;;5.28;2.13;;;;;;;;;;6113630;23;20174;-91
2023/10/15 03:43:03;;;;;;;9.40;2.70;;;;;;;;;;6098447;23;20213;-93
2023/10/15 03:46:18;;;;;;;7.78;2.80;;;;;;;;;;6098406;23;20177;-94
2023/10/15 03:49:28;;;;;;;6.88;2.50;;;;;;;;;;6096967;23;20502;-92
2023/10/15 03:52:34;;;;;;;12.68;3.10;;;;;;;;;;6096170;23;20218;-94
2023/10/15 03:55:39;;;;;;;6.80;2.90;;;;;;;;;;6094078;23;20181;-93
2023/10/15 03:58:44;;;;;;;10.10;3.13;;;;;;;;;;6109553;23;20173;-94
2023/10/15 04:01:49;;;;;;;16.30;3.20;;;;;;;;;;6091910;23;20166;-93
2023/10/15 04:05:08;;;;;;;10.35;2.78;;;;;;;;;;6091917;23;20170;-90
2023/10/15 04:08:18;;;;;;;7.18;2.35;;;;;;;;;;6094812;23;20225;-93
2023/10/15 04:11:29;;;;;;;7.88;2.72;;;;;;;;;;6094619;23;20175;-94
2023/10/15 04:14:35;;;;;;;7.05;2.28;;;;;;;;;;6094323;23;20169;-94
2023/10/15 04:17:40;;;;;;;9.13;2.80;;;;;;;;;;6092386;23;20169;-94
2023/10/15 04:20:48;;;;;;;8.82;2.58;;;;;;;;;;6109297;23;20166;-92
2023/10/15 04:24:00;;;;;;;10.23;2.25;;;;;;;;;;6095782;23;20162;-93
2023/10/15 04:27:14;;;;;;;12.25;2.60;;;;;;;;;;6113079;23;20199;-90
2023/10/15 04:30:20;;;;;;;8.75;3.35;;;;;;;;;;6093138;23;20182;-94
2023/10/15 04:33:30;;;;;;;12.30;2.80;;;;;;;;;;6109060;23;20214;-94
2023/10/15 04:36:40;;;;;;;8.27;2.45;;;;;;;;;;6093152;23;20154;-92
2023/10/15 04:39:51;;;;;;;9.10;2.67;;;;;;;;;;6095133;23;20173;-93
2023/10/15 04:42:59;;;;;;;7.63;2.28;;;;;;;;;;6093968;23;20170;-93
2023/10/15 04:46:07;;;;;;;7.20;2.33;;;;;;;;;;6092394;23;20170;-94
2023/10/15 04:49:17;;;;;;;7.43;2.40;;;;;;;;;;6090276;23;20192;-91
2023/10/15 04:52:24;;;;;;;7.45;2.38;;;;;;;;;;6092984;23;20230;-92
2023/10/15 04:55:29;;;;;;;8.77;2.40;;;;;;;;;;6091258;23;20268;-93
2023/10/15 04:58:34;;;;;;;3.63;2.08;;;;;;;;;;6108328;23;20170;-91
2023/10/15 05:01:42;;;;;;;8.00;2.20;;;;;;;;;;6090700;23;20174;-92
2023/10/15 05:04:48;;;;;;;6.65;2.47;;;;;;;;;;6091470;23;20177;-94
2023/10/15 05:07:57;;;;;;;7.22;2.55;;;;;;;;;;6091911;23;20170;-90
2023/10/15 05:11:02;;;;;;;8.13;2.55;;;;;;;;;;6093550;23;20170;-94
2023/10/15 05:14:08;;;;;;;11.63;2.47;;;;;;;;;;6096119;23;20169;-91
2023/10/15 05:17:13;;;;;;;9.05;2.10;;;;;;;;;;6096188;23;20614;-92
2023/10/15 05:20:20;;;;;;;9.23;2.60;;;;;;;;;;6092913;23;20165;-90
2023/10/15 05:23:27;;;;;;;9.57;2.50;;;;;;;;;;6095155;23;20174;-91
2023/10/15 05:26:32;;;;;;;9.10;2.10;;;;;;;;;;6094912;23;20249;-91
2023/10/15 05:29:37;;;;;;;10.70;2.38;;;;;;;;;;6110670;23;20269;-93
2023/10/15 05:32:42;;;;;;;10.95;2.58;;;;;;;;;;6095483;23;20169;-93
2023/10/15 05:35:49;;;;;;;7.13;2.10;;;;;;;;;;6113735;23;20244;-91
2023/10/15 05:38:56;;;;;;;6.80;2.10;;;;;;;;;;6094319;23;20194;-93
2023/10/15 05:42:01;;;;;;;8.07;2.30;;;;;;;;;;6095182;23;20222;-94
2023/10/15 05:45:07;;;;;;;8.18;2.97;;;;;;;;;;6115916;23;20165;-92
2023/10/15 05:48:12;;;;;;;8.30;2.22;;;;;;;;;;6114855;23;20169;-92
2023/10/15 05:51:17;;;;;;;5.55;2.08;;;;;;;;;;6096960;23;20223;-91
2023/10/15 05:54:24;;;;;;;5.53;2.22;;;;;;;;;;6114805;23;20197;-91
2023/10/15 05:57:31;;;;;;;6.30;2.25;;;;;;;;;;6112311;23;20650;-94
2023/10/15 06:00:39;;;;;;;6.80;2.20;;;;;;;;;;6097378;23;20157;-93
2023/10/15 06:03:45;;;;;;;4.18;2.05;;;;;;;;;;6096107;23;20535;-92
2023/10/15 06:06:50;;;;;;;10.95;2.17;;;;;;;;;;6113601;23;20157;-91
2023/10/15 06:09:57;;;;;;;10.85;2.40;;;;;;;;;;6112695;23;20222;-91
2023/10/15 06:13:02;;;;;;;5.00;2.42;;;;;;;;;;6095768;23;20166;-92
2023/10/15 06:16:09;;;;;;;7.38;2.42;;;;;;;;;;6095614;23;20170;-90
2023/10/15 06:19:16;;;;;;;6.82;2.00;;;;;;;;;;6111270;23;20173;-92
2023/10/15 06:22:22;;;;;;;6.85;2.30;;;;;;;;;;6095025;23;20176;-93
2023/10/15 06:25:28;;;;;;;6.47;2.33;;;;;;;;;;6094852;23;20223;-91
2023/10/15 06:28:33;;;;;;;9.90;2.40;;;;;;;;;;6096755;23;20218;-92
2023/10/15 06:31:40;;;;;;;3.72;1.88;;;;;;;;;;6100137;23;20191;-94
2023/10/15 06:34:45;;;;;;;11.55;2.15;;;;;;;;;;6098368;23;20215;-91
2023/10/15 06:37:55;;;;;;;7.60;2.17;;;;;;;;;;6098987;23;20214;-94
2023/10/15 06:41:02;;;;;;;8.95;2.63;;;;;;;;;;6093442;23;20181;-90
2023/10/15 06:44:08;;;;;;;6.72;2.50;;;;;;;;;;6094861;23;20224;-92
2023/10/15 06:47:13;;;;;;;8.23;2.70;;;;;;;;;;6096858;23;20198;-93
2023/10/15 06:50:20;;;;;;;10.27;2.42;;;;;;;;;;6096733;23;20529;-91
2023/10/15 06:53:25;;;;;;;9.30;2.58;;;;;;;;;;6099904;23;20211;-94
2023/10/15 06:56:33;;;;;;;16.38;6.65;;;;;;;;;;6111168;23;20218;-92
2023/10/15 06:59:38;;;;;;;6.13;2.30;;;;;;;;;;6096766;23;20173;-92
2023/10/15 07:02:45;;;;;;;122.53;48.10;;;;;;;;;;6098385;23;20207;-91
2023/10/15 07:05:50;;;;;;;11.27;2.38;;;;;;;;;;6117066;23;20214;-93
2023/10/15 07:08:56;;;;;;;5.18;2.00;;;;;;;;;;6098693;23;20255;-91
2023/10/15 07:12:07;;;;;;;8.38;2.20;;;;;;;;;;6099618;23;20174;-91
2023/10/15 07:15:13;;;;;;;5.65;2.45;;;;;;;;;;6098733;23;20211;-93
2023/10/15 07:18:18;;;;;;;6.65;2.08;;;;;;;;;;6095721;23;20628;-93
2023/10/15 07:21:25;;;;;;;9.18;2.60;;;;;;;;;;6097875;23;20162;-94
2023/10/15 07:24:31;;;;;;;6.40;1.90;;;;;;;;;;6096200;23;20190;-93
2023/10/15 07:27:37;;;;;;;13.52;2.35;;;;;;;;;;6094524;23;20505;-94
2023/10/15 07:30:43;;;;;;;6.00;2.03;;;;;;;;;;6095622;23;20201;-90
2023/10/15 07:33:49;;;;;;;8.85;2.10;;;;;;;;;;6114596;23;20233;-92
2023/10/15 07:43:14;;;;;;;14.02;2.42;;;;;;;;;;6026991;23;20172;-92
2023/10/15 07:46:19;;;;;;;10.10;2.47;;;;;;;;;;6013808;23;20173;-92
2023/10/15 07:49:26;;;;;;;5.43;2.17;;;;;;;;;;6010026;23;20246;-91
2023/10/15 07:52:31;;;;;;;10.07;2.20;;;;;;;;;;6011560;23;20172;-94
2023/10/15 07:55:37;;;;;;;5.25;1.90;;;;;;;;;;6027818;23;20247;-96
2023/10/15 07:58:43;;;;;;;7.10;2.22;;;;;;;;;;6006652;23;20271;-93
2023/10/15 08:01:50;;;;;;;6.10;2.47;;;;;;;;;;6022987;23;20194;-90
2023/10/15 08:04:56;;;;;;;8.52;2.42;;;;;;;;;;6024313;23;20172;-92
2023/10/15 08:08:01;;;;;;;8.68;2.28;;;;;;;;;;6009758;23;20241;-93
2023/10/15 08:11:06;;;;;;;8.05;2.60;;;;;;;;;;6027792;23;20175;-92
2023/10/15 08:14:13;;;;;;;5.60;2.20;;;;;;;;;;6027348;23;20176;-91
2023/10/15 08:17:18;;;;;;;5.57;2.20;;;;;;;;;;6010900;23;20208;-92
2023/10/15 08:20:23;;;;;;;6.75;1.98;;;;;;;;;;6025032;23;20216;-90
2023/10/15 08:23:29;;;;;;;11.38;2.47;;;;;;;;;;6027843;23;20198;-95
2023/10/15 08:26:34;;;;;;;8.57;2.20;;;;;;;;;;6010912;23;20229;-94
2023/10/15 08:29:42;;;;;;;9.80;2.30;;;;;;;;;;6026552;23;20203;-92
2023/10/15 08:32:48;;;;;;;10.82;2.92;;;;;;;;;;6028365;23;20220;-92
2023/10/15 08:35:54;;;;;;;10.50;2.35;;;;;;;;;;6016572;23;20208;-91
2023/10/15 08:39:03;;;;;;;7.00;2.13;;;;;;;;;;6029252;23;20246;-96
2023/10/15 08:42:11;;;;;;;5.40;2.47;;;;;;;;;;6016007;23;20198;-94
2023/10/15 08:45:21;;;;;;;10.10;2.40;;;;;;;;;;6030732;23;20171;-94
2023/10/15 08:48:28;;;;;;;8.95;2.53;;;;;;;;;;6010339;23;20255;-91
2023/10/15 08:54:59;;;;;;;4.88;2.28;;;;;;;;;;6011215;23;20172;-92
2023/10/15 08:58:06;;;;;;;7.72;2.28;;;;;;;;;;6030503;23;20180;-93
2023/10/15 09:01:15;;;;;;;7.35;2.70;;;;;;;;;;6012102;23;20667;-91
2023/10/15 09:04:27;;;;;;;12.02;2.85;;;;;;;;;;6016092;23;20169;-92
2023/10/15 09:10:55;;;;;;;8.82;2.33;;;;;;;;;;6013094;23;20210;-91
2023/10/15 09:14:12;;;;;;;9.88;2.58;;;;;;;;;;6029308;23;20620;-94
2023/10/15 09:17:20;;;;;;;8.38;2.30;;;;;;;;;;6014570;23;20163;-93
2023/10/15 09:20:32;;;;;;;11.05;2.35;;;;;;;;;;6031297;23;20171;-91
2023/10/15 09:23:41;;;;;;;8.15;2.92;;;;;;;;;;6027549;23;20209;-93
2023/10/15 09:26:50;;;;;;;10.30;3.90;;;;;;;;;;6013176;23;20243;-93
2023/10/15 09:30:14;;;;;;;11.15;2.60;;;;;;;;;;6011547;23;20199;-94
2023/10/15 09:33:31;;;;;;;10.98;4.53;;;;;;;;;;6029753;23;20233;-93
2023/10/15 09:36:38;;;;;;;9.93;2.40;;;;;;;;;;6012262;23;20176;-91
2023/10/15 09:39:43;;;;;;;10.30;2.70;;;;;;;;;;6014878;23;20183;-93
2023/10/15 09:42:53;;;;;;;11.90;2.63;;;;;;;;;;6029355;23;20205;-92
2023/10/15 09:46:00;;;;;;;10.95;2.28;;;;;;;;;;6013948;23;20244;-93
2023/10/15 09:49:16;;;;;;;8.38;2.40;;;;;;;;;;6012772;23;20240;-90
2023/10/15 09:52:22;;;;;;;10.45;2.63;;;;;;;;;;6030090;23;20164;-92
2023/10/15 09:55:28;;;;;;;11.07;2.47;;;;;;;;;;6028314;23;20242;-91
2023/10/15 09:58:35;;;;;;;10.98;2.90;;;;;;;;;;6028330;23;20176;-91
2023/10/15 10:01:44;;;;;;;12.15;2.60;;;;;;;;;;6026987;23;20172;-91
2023/10/15 10:05:00;;;;;;;10.63;4.10;;;;;;;;;;6012963;23;20164;-91
2023/10/15 10:08:12;;;;;;;10.70;3.05;;;;;;;;;;6029434;23;20172;-91
2023/10/15 10:11:27;;;;;;;6.15;2.50;;;;;;;;;;6017391;23;20205;-92
2023/10/15 10:26:20;;;;;;;12.52;3.40;;;;;;;;;;6079106;23;20218;-93
2023/10/15 10:29:27;;;;;;;8.65;2.80;;;;;;;;;;6101078;23;20174;-92
2023/10/15 10:32:35;;;;;;;9.68;3.33;;;;;;;;;;6102420;23;20170;-92
2023/10/15 10:35:45;;;;;;;7.22;2.33;;;;;;;;;;6102461;23;20207;-93
2023/10/15 10:39:07;;;;;;;12.80;2.75;;;;;;;;;;6100560;23;20174;-93
2023/10/15 10:42:26;;;;;;;10.70;2.50;;;;;;;;;;6100172;23;20158;-94
2023/10/15 10:45:50;;;;;;;12.70;2.63;;;;;;;;;;6099638;23;20222;-94
2023/10/15 10:49:13;;;;;;;9.55;2.30;;;;;;;;;;6099237;23;20598;-94
2023/10/15 10:52:18;;;;;;;9.70;1.98;;;;;;;;;;6099717;23;20174;-93
2023/10/15 10:55:32;;;;;;;10.43;2.40;;;;;;;;;;6098561;23;20181;-94
2023/10/15 10:58:39;;;;;;;9.75;2.67;;;;;;;;;;6099096;23;20214;-91
2023/10/15 11:01:45;;;;;;;11.50;2.33;;;;;;;;;;6097363;23;20173;-92
2023/10/15 11:04:54;;;;;;;9.70;2.40;;;;;;;;;;6096413;23;20170;-94
2023/10/15 11:08:03;;;;;;;5.68;1.83;;;;;;;;;;6099663;23;20174;-93
2023/10/15 11:11:09;;;;;;;8.27;2.17;;;;;;;;;;6099654;23;20185;-92
2023/10/15 11:14:16;;;;;;;8.88;1.80;;;;;;;;;;6098629;23;20723;-91
2023/10/15 11:17:21;;;;;;;4.75;1.55;;;;;;;;;;6098626;23;20214;-92
2023/10/15 11:20:30;;;;;;;8.27;2.15;;;;;;;;;;6098865;23;20657;-91
2023/10/15 11:23:35;;;;;;;10.25;2.20;;;;;;;;;;6100237;23;20257;-92
2023/10/15 11:26:41;;;;;;;9.68;2.22;;;;;;;;;;6116214;23;20197;-92
2023/10/15 11:29:48;;;;;;;5.75;1.83;;;;;;;;;;6115644;23;20258;-92
2023/10/15 11:32:54;;;;;;;8.82;3.03;;;;;;;;;;6097850;23;20216;-92
2023/10/15 11:36:06;;;;;;;8.02;2.67;;;;;;;;;;6098936;23;20223;-91
2023/10/15 11:46:40;;;;;;;10.27;2.60;;;;;;;;;;6100411;23;20178;-92
2023/10/15 11:49:51;;;;;;;10.77;2.30;;;;;;;;;;6098607;23;20177;-91
2023/10/15 11:52:59;;;;;;;6.18;2.13;;;;;;;;;;6095463;23;20402;-90
2023/10/15 11:56:06;;;;;;;12.90;4.80;;;;;;;;;;6095898;23;20170;-94
2023/10/15 11:59:12;;;;;;;9.40;2.35;;;;;;;;;;6095490;23;20181;-91
2023/10/15 12:02:20;;;;;;;10.60;2.33;;;;;;;;;;6094308;23;20170;-95
2023/10/15 12:05:29;;;;;;;8.10;1.90;;;;;;;;;;6093122;23;20169;-92
2023/10/15 12:08:45;;;;;;;4.55;1.85;;;;;;;;;;6113871;23;20166;-92
2023/10/15 12:18:32;;;;;;;6.60;2.10;;;;;;;;;;6116328;23;20234;-92
2023/10/15 12:21:41;;;;;;;8.52;2.80;;;;;;;;;;6115534;23;20190;-93
2023/10/15 12:24:50;;;;;;;15.80;2.88;;;;;;;;;;6097730;23;20617;-92
2023/10/15 12:27:59;;;;;;;5.30;1.80;;;;;;;;;;6100915;23;20218;-92
2023/10/15 12:31:06;;;;;;;8.63;2.33;;;;;;;;;;6118318;23;20266;-94
2023/10/15 12:34:36;;;;;;;12.02;2.47;;;;;;;;;;6099618;23;20195;-91
2023/10/15 12:37:46;;;;;;;9.43;1.92;;;;;;;;;;6118628;23;20179;-93
2023/10/15 12:40:52;;;;;;;6.05;1.70;;;;;;;;;;6102539;23;20191;-91
2023/10/15 12:44:26;;;;;;;6.82;1.92;;;;;;;;;;6103230;23;20223;-91
2023/10/15 12:47:32;;;;;;;8.93;1.85;;;;;;;;;;6099995;23;20174;-92
2023/10/15 12:50:40;;;;;;;8.05;1.77;;;;;;;;;;6100871;23;20181;-92
2023/10/15 12:53:48;;;;;;;5.18;1.45;;;;;;;;;;6098803;23;20169;-91
2023/10/15 12:56:55;;;;;;;6.18;1.77;;;;;;;;;;6100462;23;20194;-93
2023/10/15 13:00:11;;;;;;;4.72;1.75;;;;;;;;;;6098755;23;20242;-94
2023/10/15 13:03:17;;;;;;;7.60;1.50;;;;;;;;;;6099303;23;20505;-94
2023/10/15 13:06:22;;;;;;;6.72;1.77;;;;;;;;;;6102223;23;20234;-92
2023/10/15 13:09:32;;;;;;;9.57;1.90;;;;;;;;;;6099750;23;20194;-96
2023/10/15 13:12:38;;;;;;;10.60;1.70;;;;;;;;;;6098499;23;20218;-93
2023/10/15 13:15:48;;;;;;;6.85;1.77;;;;;;;;;;6111616;23;20193;-93
2023/10/15 13:18:58;;;;;;;8.27;2.72;;;;;;;;;;6100889;23;20178;-92
2023/10/15 13:22:06;;;;;;;8.07;2.28;;;;;;;;;;6099174;23;20621;-92
2023/10/15 13:25:13;;;;;;;6.63;3.00;;;;;;;;;;6096654;23;20157;-90
2023/10/15 13:28:19;;;;;;;4.07;1.95;;;;;;;;;;6111214;23;20174;-91
2023/10/15 13:31:24;;;;;;;9.82;2.63;;;;;;;;;;6092935;23;20202;-91
2023/10/15 13:34:29;;;;;;;7.78;2.50;;;;;;;;;;6093727;23;20170;-92
2023/10/15 13:37:35;;;;;;;8.23;2.90;;;;;;;;;;6112002;23;20223;-92
2023/10/15 13:40:45;;;;;;;5.88;2.17;;;;;;;;;;6097521;23;20218;-92
2023/10/15 13:43:51;;;;;;;8.88;2.35;;;;;;;;;;6097734;23;20190;-92
2023/10/15 13:46:57;;;;;;;8.75;1.90;;;;;;;;;;6094962;23;20202;-89
2023/10/15 13:50:02;;;;;;;7.35;2.58;;;;;;;;;;6092741;23;20166;-90
2023/10/15 13:53:08;;;;;;;4.65;1.73;;;;;;;;;;6093670;23;20173;-91
2023/10/15 13:56:14;;;;;;;6.80;1.60;;;;;;;;;;6098645;23;20174;-90
2023/10/15 13:59:20;;;;;;;4.28;1.75;;;;;;;;;;6092467;23;20222;-91
2023/10/15 14:02:26;;;;;;;3.13;1.73;;;;;;;;;;6092625;23;20170;-92
2023/10/15 14:05:32;;;;;;;5.95;2.35;;;;;;;;;;6096256;23;20210;-93
2023/10/15 14:08:38;;;;;;;5.28;2.10;;;;;;;;;;6095089;23;20170;-91
2023/10/15 14:11:45;;;;;;;9.45;2.95;;;;;;;;;;6094228;23;20242;-89
2023/10/15 14:14:50;;;;;;;5.82;2.05;;;;;;;;;;6110867;23;20174;-93
2023/10/15 14:17:55;;;;;;;5.80;2.30;;;;;;;;;;6112733;23;20177;-90
2023/10/15 14:21:01;;;;;;;5.28;1.95;;;;;;;;;;6096319;23;20173;-89
2023/10/15 14:24:09;;;;;;;6.10;1.73;;;;;;;;;;6111250;23;20198;-90
2023/10/15 14:27:16;;;;;;;4.82;2.00;;;;;;;;;;6094919;23;20682;-90
2023/10/15 14:30:22;;;;;;;6.72;2.00;;;;;;;;;;6094047;23;20264;-89
2023/10/15 14:33:28;;;;;;;5.35;1.80;;;;;;;;;;6111957;23;20173;-92
2023/10/15 14:36:38;;;;;;;4.78;2.45;;;;;;;;;;6095693;23;20174;-90
2023/10/15 14:39:45;;;;;;;5.35;2.22;;;;;;;;;;6095453;23;20178;-91
2023/10/15 14:42:53;;;;;;;4.05;1.90;;;;;;;;;;6095873;23;20232;-89
2023/10/15 14:45:58;;;;;;;5.57;2.35;;;;;;;;;;6096597;23;20201;-93
2023/10/15 14:49:05;;;;;;;3.88;1.40;;;;;;;;;;6113482;23;20199;-91
2023/10/15 14:58:51;;;;;;;25.02;9.93;;;;;;;;;;6100078;23;20190;-93
2023/10/15 15:01:57;;;;;;;31.55;10.90;;;;;;;;;;6097583;23;20186;-91
2023/10/15 15:05:03;;;;;;;17.95;6.47;;;;;;;;;;6095835;23;20177;-90
2023/10/15 15:08:09;;;;;;;8.77;3.28;;;;;;;;;;6093030;23;20218;-90
2023/10/15 15:11:15;;;;;;;8.55;3.72;;;;;;;;;;6095897;23;20301;-91
2023/10/15 15:14:23;;;;;;;4.72;2.53;;;;;;;;;;6094368;23;20173;-93
2023/10/15 15:17:28;;;;;;;11.60;5.90;;;;;;;;;;6112280;23;20166;-93
2023/10/15 15:20:33;;;;;;;7.60;3.83;;;;;;;;;;6095761;23;20194;-90
2023/10/15 15:23:38;;;;;;;9.90;3.92;;;;;;;;;;6112484;23;20174;-93
2023/10/15 15:26:44;;;;;;;8.00;3.30;;;;;;;;;;6113895;23;20253;-92
2023/10/15 15:29:54;;;;;;;22.35;5.03;;;;;;;;;;6112687;23;20174;-89
2023/10/15 15:33:00;;;;;;;4.70;1.88;;;;;;;;;;6112848;23;20196;-90
2023/10/15 15:36:06;;;;;;;7.38;2.05;;;;;;;;;;6096705;23;20242;-90
2023/10/15 15:39:11;;;;;;;12.52;3.72;;;;;;;;;;6094950;23;20173;-93
2023/10/15 15:42:17;;;;;;;3.58;1.20;;;;;;;;;;6095682;23;20198;-92
2023/10/15 15:45:24;;;;;;;15.77;4.20;;;;;;;;;;6112018;23;20166;-91
2023/10/15 15:48:30;;;;;;;10.82;3.28;;;;;;;;;;6113269;23;20597;-90
2023/10/15 15:51:38;;;;;;;4.57;1.48;;;;;;;;;;6095229;23;20321;-92
2023/10/15 15:54:49;;;;;;;6.63;1.88;;;;;;;;;;6098730;23;20182;-91
2023/10/15 15:57:55;;;;;;;8.65;4.78;;;;;;;;;;6098208;23;20214;-89
2023/10/15 16:01:03;;;;;;;13.82;5.57;;;;;;;;;;6095454;23;20629;-90
2023/10/15 16:04:10;;;;;;;5.25;3.25;;;;;;;;;;6098517;23;20181;-91
2023/10/15 16:07:15;;;;;;;8.85;3.58;;;;;;;;;;6093601;23;20637;-88
2023/10/15 16:10:22;;;;;;;13.88;7.68;;;;;;;;;;6094993;23;20177;-90
2023/10/15 16:13:27;;;;;;;6.05;3.80;;;;;;;;;;6093878;23;20191;-90
2023/10/15 16:16:34;;;;;;;8.70;2.20;;;;;;;;;;6092181;23;20490;-90
2023/10/15 16:19:39;;;;;;;6.35;1.73;;;;;;;;;;6111799;23;20194;-89
2023/10/15 16:22:45;;;;;;;8.00;3.65;;;;;;;;;;6095297;23;20626;-91
2023/10/15 16:25:51;;;;;;;9.05;2.85;;;;;;;;;;6111892;23;20178;-93
2023/10/15 16:28:57;;;;;;;10.75;4.97;;;;;;;;;;6102486;23;20248;-91
2023/10/15 16:35:40;;;;;;;7.40;6.03;;;;;;;;;;6097847;23;20188;-94
2023/10/15 16:38:45;;;;;;;4.00;2.60;;;;;;;;;;6109597;23;20173;-91
2023/10/15 16:41:51;;;;;;;7.05;3.20;;;;;;;;;;6109383;23;20210;-91
2023/10/15 16:44:56;;;;;;;6.95;3.45;;;;;;;;;;6092499;23;20174;-92
2023/10/15 16:48:01;;;;;;;14.07;7.00;;;;;;;;;;6095213;23;20173;-91
2023/10/15 16:51:13;;;;;;;7.13;2.40;;;;;;;;;;6097665;23;20625;-92
2023/10/15 16:54:18;;;;;;;7.90;3.83;;;;;;;;;;6096752;23;20189;-89
2023/10/15 16:57:24;;;;;;;6.03;2.90;;;;;;;;;;6097675;23;20686;-91
2023/10/15 17:00:30;;;;;;;8.70;4.53;;;;;;;;;;6113255;23;20202;-91
2023/10/15 17:03:36;;;;;;;7.35;2.75;;;;;;;;;;6093905;23;20178;-92
2023/10/15 17:06:43;;;;;;;3.88;2.50;;;;;;;;;;6094246;23;20173;-92
2023/10/15 17:09:48;;;;;;;5.53;2.40;;;;;;;;;;6111077;23;20219;-92
2023/10/15 17:12:53;;;;;;;4.93;2.58;;;;;;;;;;6109742;23;20192;-94
2023/10/15 17:15:58;;;;;;;8.57;2.53;;;;;;;;;;6094794;23;20173;-91
2023/10/15 17:19:03;;;;;;;6.95;3.83;;;;;;;;;;6094680;23;20174;-89
2023/10/15 17:22:14;;;;;;;6.10;3.25;;;;;;;;;;6117955;23;20174;-91
2023/10/15 17:25:20;;;;;;;4.20;1.80;;;;;;;;;;6106933;23;20484;-92
2023/10/15 17:28:25;;;;;;;6.32;2.67;;;;;;;;;;6095611;23;20320;-92
2023/10/15 17:31:30;;;;;;;6.13;2.50;;;;;;;;;;6096644;23;20215;-93
2023/10/15 17:34:45;;;;;;;6.78;3.13;;;;;;;;;;6107254;23;20166;-93
2023/10/15 18:36:37;;;;;;;5.40;2.80;;;;;;;;;;6069502;23;20270;-92
2023/10/15 18:39:45;;;;;;;6.67;3.00;;;;;;;;;;6094193;23;20173;-91
2023/10/15 18:42:50;;;;;;;6.47;3.40;;;;;;;;;;6092955;23;20173;-92
2023/10/15 18:45:55;;;;;;;6.80;3.53;;;;;;;;;;6094726;23;20167;-93
2023/10/15 18:49:02;;;;;;;6.53;3.90;;;;;;;;;;6093076;23;20189;-92
2023/10/15 18:52:09;;;;;;;11.23;3.90;;;;;;;;;;6099570;23;20198;-89
2023/10/15 18:55:14;;;;;;;8.53;4.33;;;;;;;;;;6099890;23;20286;-91
2023/10/15 18:58:21;;;;;;;9.77;4.50;;;;;;;;;;6097160;23;20177;-91
2023/10/15 19:01:26;;;;;;;18.50;8.03;;;;;;;;;;6098530;23;20154;-92
2023/10/15 19:04:33;;;;;;;14.80;6.53;;;;;;;;;;6098632;23;20195;-92
2023/10/15 19:07:40;;;;;;;10.93;4.50;;;;;;;;;;6099109;23;20157;-94
2023/10/15 19:10:45;;;;;;;10.70;5.10;;;;;;;;;;6115493;23;20170;-93
2023/10/15 19:14:03;;;;;;;8.97;4.27;;;;;;;;;;6098611;23;20174;-90
2023/10/15 19:17:10;;;;;;;11.30;5.30;;;;;;;;;;6096383;23;20173;-91
2023/10/15 19:20:19;;;;;;;9.93;6.17;;;;;;;;;;6111176;23;20173;-92
2023/10/15 19:23:26;;;;;;;12.83;5.13;;;;;;;;;;6095656;23;20218;-92
2023/10/15 19:29:54;;;;;;;7.63;4.37;;;;;;;;;;6100294;23;20189;-91
2023/10/15 19:33:04;;;;;;;17.10;7.40;;;;;;;;;;6098833;23;20194;-90
2023/10/15 19:36:09;;;;;;;17.47;6.87;;;;;;;;;;6096753;23;20197;-89
2023/10/15 19:39:17;;;;;;;9.00;4.40;;;;;;;;;;6099320;23;20234;-89
2023/10/15 19:42:23;;;;;;;8.10;3.33;;;;;;;;;;6099227;23;20194;-89
2023/10/15 19:45:30;;;;;;;9.33;3.73;;;;;;;;;;6102093;23;20210;-93
2023/10/15 19:48:39;;;;;;;8.83;4.00;;;;;;;;;;6098917;23;20177;-92
2023/10/15 19:51:44;;;;;;;10.63;4.50;;;;;;;;;;6092591;23;20302;-90
2023/10/15 19:54:51;;;;;;;7.60;4.40;;;;;;;;;;6113181;23;20150;-88
2023/10/15 19:57:58;;;;;;;6.73;2.97;;;;;;;;;;6093647;23;20173;-90
2023/10/15 20:01:08;;;;;;;7.07;2.93;;;;;;;;;;6093412;23;20178;-90
2023/10/15 20:04:14;;;;;;;11.27;3.00;;;;;;;;;;6095103;23;20177;-92
2023/10/15 20:07:20;;;;;;;6.07;2.77;;;;;;;;;;6095986;23;20174;-89
2023/10/15 20:10:27;;;;;;;4.17;2.30;;;;;;;;;;6094107;23;20177;-90
2023/10/15 20:13:34;;;;;;;4.80;2.67;;;;;;;;;;6095991;23;20206;-93
2023/10/15 20:16:40;;;;;;;5.97;3.00;;;;;;;;;;6095474;23;20258;-89
2023/10/15 20:19:45;;;;;;;4.07;2.50;;;;;;;;;;6096872;23;20178;-90
2023/10/15 20:22:51;;;;;;;5.20;3.10;;;;;;;;;;6096971;23;20218;-90
2023/10/15 20:25:58;;;;;;;4.10;2.17;;;;;;;;;;6095739;23;20253;-88
2023/10/15 20:29:03;;;;;;;3.97;2.10;;;;;;;;;;6112176;23;20210;-89
2023/10/15 20:32:10;;;;;;;7.40;2.47;;;;;;;;;;6098107;23;20277;-89
2023/10/15 20:35:15;;;;;;;3.63;2.00;;;;;;;;;;6096343;23;20173;-91
2023/10/15 20:38:22;;;;;;;3.20;1.97;;;;;;;;;;6094718;23;20245;-89